createdAt,value
2022-12-19T00:00:40.229Z,4.28
2022-12-19T00:03:16.001Z,3.65
2022-12-19T00:05:50.759Z,3.80
2022-12-19T00:08:27.594Z,3.20
2022-12-19T00:11:02.520Z,3.95
2022-12-19T00:13:41.532Z,3.90
2022-12-19T00:16:18.993Z,3.78
2022-12-19T00:18:56.077Z,4.50
2022-12-19T00:21:34.752Z,4.47
2022-12-19T00:24:21.191Z,4.05
2022-12-19T00:26:56.503Z,4.07
2022-12-19T00:29:37.894Z,4.72
2022-12-19T00:32:12.551Z,4.30
2022-12-19T00:34:51.794Z,3.85
2022-12-19T00:37:29.982Z,4.60
2022-12-19T00:40:05.289Z,3.53
2022-12-19T00:42:40.107Z,3.75
2022-12-19T00:45:19.829Z,4.40
2022-12-19T00:47:54.384Z,4.07
2022-12-19T00:50:29.597Z,3.97
2022-12-19T00:53:04.302Z,4.00
2022-12-19T00:55:44.580Z,3.67
2022-12-19T00:58:19.906Z,3.60
2022-12-19T01:00:59.385Z,3.88
2022-12-19T01:03:36.140Z,4.07
2022-12-19T01:06:15.922Z,3.53
2022-12-19T01:08:51.229Z,3.53
2022-12-19T01:11:41.075Z,3.50
2022-12-19T01:14:22.345Z,4.47
2022-12-19T01:17:02.838Z,3.90
2022-12-19T01:19:43.761Z,4.00
2022-12-19T01:22:22.417Z,3.63
2022-12-19T01:24:58.339Z,3.97
2022-12-19T01:27:35.287Z,4.00
2022-12-19T01:30:13.983Z,3.40
2022-12-19T01:32:53.341Z,3.78
2022-12-19T01:35:31.214Z,3.70
2022-12-19T01:38:08.931Z,3.70
2022-12-19T01:40:48.029Z,3.60
2022-12-19T01:43:24.487Z,3.97
2022-12-19T01:46:03.003Z,4.03
2022-12-19T01:48:43.545Z,4.05
2022-12-19T01:51:19.345Z,4.20
2022-12-19T01:53:55.434Z,3.78
2022-12-19T01:56:31.681Z,4.43
2022-12-19T01:59:10.223Z,3.80
2022-12-19T02:01:51.036Z,3.67
2022-12-19T02:04:33.379Z,3.88
2022-12-19T02:07:15.885Z,3.72
2022-12-19T02:09:57.150Z,4.18
2022-12-19T02:12:42.237Z,3.67
2022-12-19T02:15:19.686Z,3.78
2022-12-19T02:18:01.400Z,3.75
2022-12-19T02:20:51.243Z,3.72
2022-12-19T02:23:33.461Z,4.28
2022-12-19T02:26:18.478Z,3.22
2022-12-19T02:29:12.385Z,3.17
2022-12-19T02:31:54.598Z,3.38
2022-12-19T02:34:38.833Z,3.35
2022-12-19T02:37:24.662Z,3.20
2022-12-19T02:40:05.690Z,3.05
2022-12-19T02:42:45.949Z,2.85
2022-12-19T02:45:28.383Z,2.80
2022-12-19T02:48:09.206Z,3.35
2022-12-19T02:50:50.180Z,3.10
2022-12-19T02:53:28.047Z,3.30
2022-12-19T02:56:22.679Z,3.30
2022-12-19T02:59:19.456Z,3.22
2022-12-19T03:02:02.109Z,3.13
2022-12-19T03:04:51.590Z,3.30
2022-12-19T03:07:38.943Z,2.78
2022-12-19T03:10:27.086Z,3.58
2022-12-19T03:13:07.008Z,3.70
2022-12-19T03:15:45.466Z,3.40
2022-12-19T03:18:21.785Z,3.33
2022-12-19T03:21:09.727Z,3.40
2022-12-19T03:23:45.615Z,3.63
2022-12-19T03:26:25.277Z,3.58
2022-12-19T03:29:04.189Z,3.05
2022-12-19T03:31:40.361Z,3.35
2022-12-19T03:34:21.160Z,3.78
2022-12-19T03:37:01.874Z,3.50
2022-12-19T03:39:37.320Z,3.70
2022-12-19T03:42:30.155Z,3.30
2022-12-19T03:45:07.971Z,3.67
2022-12-19T03:47:48.169Z,3.75
2022-12-19T03:50:35.982Z,3.63
2022-12-19T03:53:21.036Z,3.20
2022-12-19T03:55:59.923Z,3.60
2022-12-19T03:58:40.562Z,3.40
2022-12-19T04:01:28.924Z,3.38
2022-12-19T04:04:04.479Z,3.00
2022-12-19T04:06:39.852Z,3.55
2022-12-19T04:09:22.684Z,3.00
2022-12-19T04:12:03.207Z,3.17
2022-12-19T04:14:42.042Z,2.70
2022-12-19T04:17:20.955Z,3.03
2022-12-19T04:20:06.459Z,3.05
2022-12-19T04:22:42.082Z,3.20
2022-12-19T04:25:23.970Z,3.30
2022-12-19T04:28:02.738Z,3.58
2022-12-19T04:30:40.358Z,2.95
2022-12-19T04:33:17.451Z,3.33
2022-12-19T04:35:53.104Z,3.13
2022-12-19T04:38:27.768Z,3.38
2022-12-19T04:41:05.553Z,3.30
2022-12-19T04:43:40.615Z,3.28
2022-12-19T04:46:16.929Z,3.30
2022-12-19T04:48:51.517Z,2.88
2022-12-19T04:51:28.522Z,3.20
2022-12-19T04:54:03.224Z,3.15
2022-12-19T04:56:40.131Z,3.20
2022-12-19T04:59:15.113Z,2.97
2022-12-19T05:01:55.307Z,2.90
2022-12-19T05:04:30.042Z,3.22
2022-12-19T05:07:05.819Z,3.00
2022-12-19T05:09:40.457Z,3.13
2022-12-19T05:12:18.558Z,2.97
2022-12-19T05:14:53.313Z,2.88
2022-12-19T05:17:35.298Z,2.42
2022-12-19T05:20:10.568Z,3.17
2022-12-19T05:22:47.787Z,3.45
2022-12-19T05:25:23.434Z,3.35
2022-12-19T05:28:07.901Z,3.28
2022-12-19T05:30:49.147Z,3.00
2022-12-19T05:33:28.317Z,2.90
2022-12-19T05:36:02.990Z,3.40
2022-12-19T05:38:38.432Z,3.55
2022-12-19T05:41:13.718Z,4.03
2022-12-19T05:43:55.246Z,3.28
2022-12-19T05:46:30.232Z,3.67
2022-12-19T05:49:05.283Z,3.92
2022-12-19T05:51:39.849Z,3.63
2022-12-19T05:54:21.626Z,3.78
2022-12-19T05:56:56.456Z,3.97
2022-12-19T05:59:33.595Z,3.83
2022-12-19T06:02:08.385Z,3.78
2022-12-19T06:04:44.809Z,3.78
2022-12-19T06:07:21.252Z,3.67
2022-12-19T06:10:00.043Z,4.22
2022-12-19T06:12:35.819Z,3.70
2022-12-19T06:15:14.648Z,3.80
2022-12-19T06:17:58.258Z,3.90
2022-12-19T06:20:33.676Z,3.55
2022-12-19T06:23:08.336Z,3.63
2022-12-19T06:25:46.323Z,3.20
2022-12-19T06:28:21.825Z,3.92
2022-12-19T06:31:00.712Z,3.38
2022-12-19T06:33:38.930Z,3.15
2022-12-19T06:36:16.955Z,3.17
2022-12-19T06:38:52.284Z,3.90
2022-12-19T06:41:44.557Z,3.78
2022-12-19T06:44:20.052Z,3.40
2022-12-19T06:47:00.124Z,3.30
2022-12-19T06:49:43.592Z,3.28
2022-12-19T06:52:19.771Z,3.20
2022-12-19T06:54:54.807Z,3.75
2022-12-19T06:57:31.561Z,3.13
2022-12-19T07:00:06.327Z,3.40
2022-12-19T07:02:46.340Z,3.33
2022-12-19T07:05:25.275Z,2.92
2022-12-19T07:08:01.591Z,3.00
2022-12-19T07:10:36.269Z,2.88
2022-12-19T07:13:13.205Z,3.40
2022-12-19T07:15:50.338Z,3.15
2022-12-19T07:18:30.955Z,2.80
2022-12-19T07:21:10.203Z,2.83
2022-12-19T07:23:46.429Z,3.13
2022-12-19T07:26:21.509Z,3.08
2022-12-19T07:29:00.289Z,3.20
2022-12-19T07:31:36.240Z,3.05
2022-12-19T07:34:15.838Z,3.03
2022-12-19T07:36:50.596Z,3.30
2022-12-19T07:39:26.635Z,3.70
2022-12-19T07:42:01.875Z,3.08
2022-12-19T07:44:46.418Z,3.25
2022-12-19T07:47:21.452Z,3.58
2022-12-19T07:49:59.817Z,3.00
2022-12-19T07:52:34.889Z,3.10
2022-12-19T07:55:10.399Z,3.03
2022-12-19T07:57:45.308Z,2.88
2022-12-19T08:00:24.033Z,4.10
2022-12-19T08:03:01.513Z,3.20
2022-12-19T08:05:39.302Z,3.20
2022-12-19T08:08:15.333Z,2.90
2022-12-19T08:10:54.536Z,3.05
2022-12-19T08:13:37.241Z,2.95
2022-12-19T08:16:19.917Z,2.83
2022-12-19T08:18:57.432Z,3.20
2022-12-19T08:21:37.952Z,2.80
2022-12-19T08:24:14.273Z,3.50
2022-12-19T08:26:51.669Z,3.65
2022-12-19T08:29:26.527Z,3.50
2022-12-19T08:32:03.277Z,3.58
2022-12-19T08:34:38.232Z,3.40
2022-12-19T08:37:15.964Z,3.08
2022-12-19T08:39:50.599Z,3.50
2022-12-19T08:42:27.766Z,3.80
2022-12-19T08:45:06.620Z,2.80
2022-12-19T08:47:44.306Z,3.42
2022-12-19T08:50:19.370Z,4.28
2022-12-19T08:52:58.122Z,4.00
2022-12-19T08:55:32.816Z,3.20
2022-12-19T08:58:08.099Z,3.05
2022-12-19T09:00:45.538Z,3.30
2022-12-19T09:03:39.343Z,3.40
2022-12-19T09:06:30.736Z,3.55
2022-12-19T09:09:12.141Z,3.75
2022-12-19T09:11:48.458Z,3.67
2022-12-19T09:14:26.453Z,4.00
2022-12-19T09:17:04.415Z,3.63
2022-12-19T09:19:40.462Z,3.55
2022-12-19T09:22:19.296Z,3.50
2022-12-19T09:24:57.374Z,4.05
2022-12-19T09:27:47.436Z,3.42
2022-12-19T09:30:27.805Z,3.30
2022-12-19T09:33:04.742Z,3.05
2022-12-19T09:35:42.509Z,3.10
2022-12-19T09:38:24.647Z,3.30
2022-12-19T09:41:25.361Z,2.80
2022-12-19T09:44:13.285Z,3.28
2022-12-19T09:46:52.960Z,3.40
2022-12-19T09:49:30.057Z,3.15
2022-12-19T09:52:07.884Z,2.85
2022-12-19T09:54:48.326Z,3.20
2022-12-19T09:57:30.095Z,2.95
2022-12-19T10:00:18.543Z,2.70
2022-12-19T10:02:56.480Z,3.08
2022-12-19T10:05:47.646Z,3.00
2022-12-19T10:08:38.038Z,3.22
2022-12-19T10:12:42.984Z,2.70
2022-12-19T10:14:50.098Z,2.63
2022-12-19T10:17:30.309Z,3.10
2022-12-19T10:20:15.150Z,2.80
2022-12-19T10:22:56.155Z,3.20
2022-12-19T10:25:39.059Z,2.85
2022-12-19T10:28:37.025Z,2.67
2022-12-19T10:31:23.611Z,3.08
2022-12-19T10:34:05.338Z,2.55
2022-12-19T10:39:58.759Z,2.70
2022-12-19T10:42:45.597Z,3.10
2022-12-19T10:45:28.604Z,2.70
2022-12-19T10:48:30.614Z,2.65
2022-12-19T10:51:07.619Z,2.30
2022-12-19T10:53:44.117Z,2.65
2022-12-19T10:56:37.079Z,2.38
2022-12-19T10:59:23.414Z,2.35
2022-12-19T11:02:02.449Z,2.47
2022-12-19T11:04:43.535Z,2.20
2022-12-19T11:07:27.563Z,2.70
2022-12-19T11:10:32.974Z,2.83
2022-12-19T11:18:45.289Z,2.30
2022-12-19T11:19:48.055Z,2.63
2022-12-19T11:29:16.169Z,2.55
2022-12-19T11:29:39.999Z,2.63
2022-12-19T11:29:54.275Z,2.45
2022-12-19T11:30:34.364Z,2.33
2022-12-19T11:33:37.482Z,2.60
2022-12-19T11:36:13.250Z,2.30
2022-12-19T11:38:54.640Z,2.67
2022-12-19T11:41:34.844Z,2.08
2022-12-19T11:44:13.463Z,2.22
2022-12-19T11:46:50.721Z,2.63
2022-12-19T11:49:33.874Z,2.70
2022-12-19T11:52:36.905Z,2.63
2022-12-19T11:55:18.556Z,2.75
2022-12-19T11:57:57.701Z,2.60
2022-12-19T12:00:34.219Z,2.75
2022-12-19T12:03:31.003Z,2.80
2022-12-19T12:06:06.313Z,2.60
2022-12-19T12:11:35.022Z,2.60
2022-12-19T12:19:43.202Z,2.63
2022-12-19T12:27:05.793Z,2.78
2022-12-19T12:30:59.260Z,2.72
2022-12-19T12:31:06.473Z,2.80
2022-12-19T12:31:23.267Z,2.30
2022-12-19T12:31:49.209Z,2.28
2022-12-19T12:31:56.214Z,2.58
2022-12-19T12:35:33.433Z,2.47
2022-12-19T12:39:06.022Z,2.60
2022-12-19T12:42:02.580Z,2.47
2022-12-19T12:44:45.578Z,2.60
2022-12-19T12:47:23.964Z,2.67
2022-12-19T12:50:03.691Z,2.75
2022-12-19T12:52:40.059Z,2.78
2022-12-19T12:55:21.146Z,3.00
2022-12-19T12:57:58.179Z,2.72
2022-12-19T13:00:38.202Z,2.70
2022-12-19T13:03:18.288Z,2.85
2022-12-19T13:06:03.792Z,2.38
2022-12-19T13:08:43.618Z,2.47
2022-12-19T13:11:41.187Z,2.40
2022-12-19T13:14:39.889Z,2.92
2022-12-19T13:17:17.109Z,2.47
2022-12-19T13:20:01.952Z,2.50
2022-12-19T13:22:45.640Z,3.20
2022-12-19T13:25:34.729Z,2.58
2022-12-19T13:28:20.278Z,2.53
2022-12-19T13:31:20.502Z,2.78
2022-12-19T13:34:24.099Z,2.28
2022-12-19T13:39:48.040Z,2.50
2022-12-19T13:40:12.330Z,2.40
2022-12-19T13:43:23.507Z,2.60
2022-12-19T13:46:03.617Z,2.72
2022-12-19T13:48:44.786Z,2.67
2022-12-19T13:51:26.207Z,2.72
2022-12-19T13:54:02.478Z,2.80
2022-12-19T13:56:39.501Z,2.47
2022-12-19T13:59:16.472Z,2.95
2022-12-19T14:01:52.899Z,2.58
2022-12-19T14:04:34.775Z,2.05
2022-12-19T14:07:36.628Z,2.42
2022-12-19T14:11:45.817Z,2.42
2022-12-19T14:13:46.855Z,2.47
2022-12-19T14:16:44.279Z,1.98
2022-12-19T14:19:28.872Z,2.60
2022-12-19T14:22:25.305Z,2.60
2022-12-19T14:28:14.137Z,2.42
2022-12-19T14:28:21.103Z,2.25
2022-12-19T14:31:03.633Z,2.33
2022-12-19T14:34:04.213Z,2.40
2022-12-19T14:36:40.440Z,2.35
2022-12-19T14:39:28.821Z,2.17
2022-12-19T14:42:49.258Z,2.13
2022-12-19T14:52:35.127Z,2.40
2022-12-19T14:54:03.377Z,2.20
2022-12-19T14:54:29.065Z,2.60
2022-12-19T14:56:16.534Z,2.30
2022-12-19T14:58:51.425Z,2.20
2022-12-19T15:01:09.384Z,2.15
2022-12-19T15:03:29.360Z,2.47
2022-12-19T15:07:05.061Z,2.10
2022-12-19T15:11:00.148Z,2.50
2022-12-19T15:13:30.776Z,2.17
2022-12-19T15:15:28.527Z,2.33
2022-12-19T15:18:03.596Z,2.30
2022-12-19T15:20:38.972Z,2.38
2022-12-19T15:23:19.929Z,2.38
2022-12-19T15:26:06.495Z,2.58
2022-12-19T15:28:47.855Z,2.50
2022-12-19T15:31:31.530Z,2.95
2022-12-19T15:34:33.658Z,2.92
2022-12-19T15:37:05.859Z,2.63
2022-12-19T15:39:40.707Z,2.80
2022-12-19T15:42:22.075Z,2.90
2022-12-19T15:45:01.542Z,3.00
2022-12-19T15:47:37.917Z,2.70
2022-12-19T15:50:20.342Z,3.08
2022-12-19T15:52:57.325Z,2.70
2022-12-19T15:55:38.898Z,2.90
2022-12-19T15:58:14.005Z,2.70
2022-12-19T16:00:54.684Z,2.58
2022-12-19T16:03:30.299Z,2.97
2022-12-19T16:06:06.400Z,2.63
2022-12-19T16:08:41.380Z,3.05
2022-12-19T16:11:22.503Z,2.92
2022-12-19T16:13:59.587Z,2.60
2022-12-19T16:16:39.395Z,2.50
2022-12-19T16:19:28.438Z,2.85
2022-12-19T16:22:04.590Z,2.90
2022-12-19T16:24:39.899Z,2.55
2022-12-19T16:27:19.317Z,2.88
2022-12-19T16:29:54.445Z,2.63
2022-12-19T16:32:32.196Z,3.00
2022-12-19T16:35:07.608Z,3.03
2022-12-19T16:37:43.157Z,2.83
2022-12-19T16:40:21.988Z,3.08
2022-12-19T16:43:03.171Z,3.03
2022-12-19T16:45:42.454Z,3.20
2022-12-19T16:48:27.562Z,3.10
2022-12-19T16:51:04.326Z,3.13
2022-12-19T16:53:41.393Z,2.45
2022-12-19T16:56:30.012Z,2.80
2022-12-19T16:59:10.037Z,3.00
2022-12-19T17:01:48.361Z,3.15
2022-12-19T17:04:29.211Z,3.17
2022-12-19T17:07:05.681Z,3.28
2022-12-19T17:09:42.238Z,2.88
2022-12-19T17:12:21.973Z,2.85
2022-12-19T17:14:58.409Z,3.13
2022-12-19T17:17:35.072Z,2.80
2022-12-19T17:20:21.710Z,3.13
2022-12-19T17:22:58.670Z,2.60
2022-12-19T17:25:35.599Z,2.85
2022-12-19T17:28:14.507Z,2.80
2022-12-19T17:30:54.964Z,2.50
2022-12-19T17:33:37.091Z,2.90
2022-12-19T17:36:24.568Z,2.78
2022-12-19T17:39:01.071Z,2.72
2022-12-19T17:41:37.932Z,3.10
2022-12-19T17:44:13.840Z,3.33
2022-12-19T17:46:50.678Z,2.95
2022-12-19T17:49:32.567Z,2.75
2022-12-19T17:52:16.904Z,2.53
2022-12-19T17:54:52.701Z,2.95
2022-12-19T17:57:28.589Z,2.78
2022-12-19T18:00:05.660Z,2.90
2022-12-19T18:02:48.414Z,3.05
2022-12-19T18:05:25.818Z,2.90
2022-12-19T18:08:04.233Z,3.08
2022-12-19T18:10:40.994Z,2.88
2022-12-19T18:13:17.731Z,2.70
2022-12-19T18:15:54.108Z,3.22
2022-12-19T18:18:34.625Z,3.05
2022-12-19T18:21:11.798Z,2.78
2022-12-19T18:23:51.715Z,3.10
2022-12-19T18:26:27.786Z,3.17
2022-12-19T18:29:04.631Z,2.95
2022-12-19T18:31:49.779Z,2.90
2022-12-19T18:34:28.422Z,2.78
2022-12-19T18:37:06.440Z,2.80
2022-12-19T18:39:45.744Z,2.72
2022-12-19T18:42:26.893Z,2.72
2022-12-19T18:45:05.188Z,2.55
2022-12-19T18:47:42.810Z,2.70
2022-12-19T18:50:23.605Z,2.97
2022-12-19T18:53:00.868Z,2.60
2022-12-19T18:55:40.218Z,2.80
2022-12-19T18:58:16.621Z,2.90
2022-12-19T19:00:58.994Z,2.85
2022-12-19T19:03:38.211Z,3.00
2022-12-19T19:06:27.921Z,2.58
2022-12-19T19:09:03.850Z,3.33
2022-12-19T19:12:02.641Z,3.03
2022-12-19T19:14:38.974Z,2.45
2022-12-19T19:17:24.464Z,2.88
2022-12-19T19:20:01.300Z,2.67
2022-12-19T19:22:38.137Z,3.00
2022-12-19T19:25:15.628Z,2.90
2022-12-19T19:27:55.226Z,2.90
2022-12-19T19:30:30.965Z,3.00
2022-12-19T19:33:11.526Z,2.78
2022-12-19T19:35:49.262Z,2.95
2022-12-19T19:38:27.724Z,3.28
2022-12-19T19:41:03.993Z,2.97
2022-12-19T19:43:42.205Z,2.47
2022-12-19T19:46:18.248Z,2.30
2022-12-19T19:48:54.379Z,2.47
2022-12-19T19:51:30.530Z,2.33
2022-12-19T19:54:06.339Z,2.53
2022-12-19T19:56:45.922Z,2.92
2022-12-19T19:59:25.421Z,2.97
2022-12-19T20:02:01.242Z,2.60
2022-12-19T20:04:38.147Z,2.80
2022-12-19T20:07:14.759Z,2.65
2022-12-19T20:09:51.187Z,3.00
2022-12-19T20:12:28.367Z,2.70
2022-12-19T20:15:09.267Z,2.90
2022-12-19T20:17:49.068Z,2.85
2022-12-19T20:20:25.541Z,3.00
2022-12-19T20:23:02.175Z,2.58
2022-12-19T20:25:41.568Z,2.88
2022-12-19T20:28:36.014Z,2.97
2022-12-19T20:31:31.119Z,3.03
2022-12-19T20:34:14.131Z,2.40
2022-12-19T20:36:50.764Z,2.80
2022-12-19T20:39:37.281Z,2.70
2022-12-19T20:42:17.226Z,2.53
2022-12-19T20:44:53.451Z,2.60
2022-12-19T20:47:33.537Z,2.35
2022-12-19T20:50:14.716Z,2.60
2022-12-19T20:52:57.680Z,2.80
2022-12-19T20:55:34.075Z,2.83
2022-12-19T20:58:16.089Z,2.78
2022-12-19T21:00:58.792Z,2.72
2022-12-19T21:03:38.191Z,2.90
2022-12-19T21:06:15.891Z,3.78
2022-12-19T21:08:54.081Z,3.22
2022-12-19T21:11:30.977Z,5.03
2022-12-19T21:14:09.882Z,5.63
2022-12-19T21:17:00.305Z,3.47
2022-12-19T21:19:51.548Z,3.50
2022-12-19T21:22:52.593Z,2.90
2022-12-19T21:25:42.854Z,3.38
2022-12-19T21:31:56.671Z,2.53
2022-12-19T21:34:42.948Z,3.38
2022-12-19T21:37:43.298Z,2.65
2022-12-19T21:40:44.646Z,2.67
2022-12-19T21:43:22.729Z,3.53
2022-12-19T21:46:09.185Z,2.47
2022-12-19T21:48:44.768Z,2.50
2022-12-19T21:51:22.688Z,2.65
2022-12-19T21:53:59.092Z,3.47
2022-12-19T21:56:36.224Z,2.55
2022-12-19T21:59:12.805Z,4.35
2022-12-19T22:01:49.114Z,5.00
2022-12-19T22:04:25.520Z,2.90
2022-12-19T22:07:03.933Z,2.70
2022-12-19T22:09:38.938Z,2.95
2022-12-19T22:12:18.216Z,2.30
2022-12-19T22:14:53.517Z,2.60
2022-12-19T22:17:30.244Z,2.40
2022-12-19T22:20:05.330Z,2.35
2022-12-19T22:22:43.639Z,2.22
2022-12-19T22:25:23.571Z,2.00
2022-12-19T22:28:02.141Z,2.58
2022-12-19T22:30:41.348Z,2.40
2022-12-19T22:33:17.617Z,2.33
2022-12-19T22:35:53.389Z,2.33
2022-12-19T22:38:32.230Z,2.40
2022-12-19T22:41:09.604Z,2.65
2022-12-19T22:43:45.139Z,2.55
2022-12-19T22:46:23.815Z,2.17
2022-12-19T22:49:03.080Z,2.17
2022-12-19T22:51:40.830Z,2.65
2022-12-19T22:54:23.632Z,2.50
2022-12-19T22:56:59.428Z,2.70
2022-12-19T22:59:36.661Z,4.70
2022-12-19T23:02:13.035Z,2.47
2022-12-19T23:04:57.636Z,2.30
2022-12-19T23:07:33.543Z,2.72
2022-12-19T23:10:13.501Z,2.03
2022-12-19T23:12:49.517Z,2.55
2022-12-19T23:15:25.337Z,2.40
2022-12-19T23:18:01.189Z,1.92
2022-12-19T23:20:39.260Z,2.28
2022-12-19T23:23:15.500Z,2.40
2022-12-19T23:25:56.181Z,2.28
2022-12-19T23:28:32.927Z,2.80
2022-12-19T23:31:11.906Z,2.58
2022-12-19T23:33:48.192Z,2.83
2022-12-19T23:39:34.105Z,2.90
2022-12-19T23:42:13.189Z,1.75
2022-12-19T23:44:55.145Z,2.92
2022-12-19T23:47:30.903Z,2.05
2022-12-19T23:50:06.715Z,1.92
2022-12-19T23:52:43.659Z,1.90
2022-12-19T23:55:19.301Z,1.92
2022-12-19T23:57:57.406Z,1.83
